sensor_id;sensor_type;location;lat;lon;timestamp;temperature;humidity
74484;SHT31;62942;52.462;10.846;2023-02-15T00:00:42;-0.5;96.4
74484;SHT31;62942;52.462;10.846;2023-02-15T00:01:52;-0.5;96.4
74484;SHT31;62942;52.462;10.846;2023-02-15T00:03:02;-0.5;96.4
74484;SHT31;62942;52.462;10.846;2023-02-15T00:04:12;-0.5;96.4
74484;SHT31;62942;52.462;10.846;2023-02-15T00:05:22;-0.5;96.4
74484;SHT31;62942;52.462;10.846;2023-02-15T00:06:32;-0.5;96.4
74484;SHT31;62942;52.462;10.846;2023-02-15T00:07:42;-0.5;96.4
74484;SHT31;62942;52.462;10.846;2023-02-15T00:08:42;-0.5;96.4
74484;SHT31;62942;52.462;10.846;2023-02-15T00:09:42;-0.5;96.5
74484;SHT31;62942;52.462;10.846;2023-02-15T00:10:52;-0.5;96.5
74484;SHT31;62942;52.462;10.846;2023-02-15T00:12:02;-0.5;96.6
74484;SHT31;62942;52.462;10.846;2023-02-15T00:13:12;-0.5;96.6
74484;SHT31;62942;52.462;10.846;2023-02-15T00:14:12;-0.5;96.6
74484;SHT31;62942;52.462;10.846;2023-02-15T00:15:22;-0.5;96.7
74484;SHT31;62942;52.462;10.846;2023-02-15T00:16:32;-0.6;96.7
74484;SHT31;62942;52.462;10.846;2023-02-15T00:17:32;-0.6;96.7
74484;SHT31;62942;52.462;10.846;2023-02-15T00:18:42;-0.6;96.7
74484;SHT31;62942;52.462;10.846;2023-02-15T00:19:42;-0.6;96.8
74484;SHT31;62942;52.462;10.846;2023-02-15T00:20:52;-0.6;96.8
74484;SHT31;62942;52.462;10.846;2023-02-15T00:22:02;-0.6;96.8
74484;SHT31;62942;52.462;10.846;2023-02-15T00:23:12;-0.7;96.8
74484;SHT31;62942;52.462;10.846;2023-02-15T00:24:22;-0.7;96.9
74484;SHT31;62942;52.462;10.846;2023-02-15T00:25:22;-0.7;96.8
74484;SHT31;62942;52.462;10.846;2023-02-15T00:26:32;-0.7;96.9
74484;SHT31;62942;52.462;10.846;2023-02-15T00:27:42;-0.7;96.9
74484;SHT31;62942;52.462;10.846;2023-02-15T00:28:42;-0.7;96.9
74484;SHT31;62942;52.462;10.846;2023-02-15T00:29:52;-0.8;96.9
74484;SHT31;62942;52.462;10.846;2023-02-15T00:30:52;-0.8;97
74484;SHT31;62942;52.462;10.846;2023-02-15T00:32:02;-0.8;96.9
74484;SHT31;62942;52.462;10.846;2023-02-15T00:33:12;-0.9;96.9
74484;SHT31;62942;52.462;10.846;2023-02-15T00:34:23;-0.9;97
74484;SHT31;62942;52.462;10.846;2023-02-15T00:35:32;-0.9;97.1
74484;SHT31;62942;52.462;10.846;2023-02-15T00:36:42;-0.9;97
74484;SHT31;62942;52.462;10.846;2023-02-15T00:37:52;-0.9;97
74484;SHT31;62942;52.462;10.846;2023-02-15T00:39:02;-1;97.1
74484;SHT31;62942;52.462;10.846;2023-02-15T00:40:02;-1;97.1
74484;SHT31;62942;52.462;10.846;2023-02-15T00:41:02;-1;97.2
74484;SHT31;62942;52.462;10.846;2023-02-15T00:42:12;-1;97.1
74484;SHT31;62942;52.462;10.846;2023-02-15T00:43:22;-1;97.1
74484;SHT31;62942;52.462;10.846;2023-02-15T00:44:32;-1;97.1
74484;SHT31;62942;52.462;10.846;2023-02-15T00:45:42;-1;97.2
74484;SHT31;62942;52.462;10.846;2023-02-15T00:46:52;-1.1;97.2
74484;SHT31;62942;52.462;10.846;2023-02-15T00:47:52;-1.1;97.2
74484;SHT31;62942;52.462;10.846;2023-02-15T00:49:02;-1.1;97.2
74484;SHT31;62942;52.462;10.846;2023-02-15T00:50:12;-1.1;97.1
74484;SHT31;62942;52.462;10.846;2023-02-15T00:51:22;-1.1;97.1
74484;SHT31;62942;52.462;10.846;2023-02-15T00:52:32;-1.1;97.2
74484;SHT31;62942;52.462;10.846;2023-02-15T00:53:42;-1.1;97.2
74484;SHT31;62942;52.462;10.846;2023-02-15T00:54:42;-1.2;97.2
74484;SHT31;62942;52.462;10.846;2023-02-15T00:55:42;-1.2;97.2
74484;SHT31;62942;52.462;10.846;2023-02-15T00:56:42;-1.2;97.2
74484;SHT31;62942;52.462;10.846;2023-02-15T00:57:52;-1.2;97.2
74484;SHT31;62942;52.462;10.846;2023-02-15T00:59:02;-1.2;97.2
74484;SHT31;62942;52.462;10.846;2023-02-15T01:00:12;-1.2;97.2
74484;SHT31;62942;52.462;10.846;2023-02-15T01:01:22;-1.2;97.2
74484;SHT31;62942;52.462;10.846;2023-02-15T01:02:22;-1.2;97.2
74484;SHT31;62942;52.462;10.846;2023-02-15T01:03:22;-1.2;97.2
74484;SHT31;62942;52.462;10.846;2023-02-15T01:04:32;-1.2;97.2
74484;SHT31;62942;52.462;10.846;2023-02-15T01:05:42;-1.2;97.2
74484;SHT31;62942;52.462;10.846;2023-02-15T01:06:42;-1.2;97.2
74484;SHT31;62942;52.462;10.846;2023-02-15T01:07:52;-1.2;97.2
74484;SHT31;62942;52.462;10.846;2023-02-15T01:09:02;-1.2;97.2
74484;SHT31;62942;52.462;10.846;2023-02-15T01:10:11;-1.2;97.2
74484;SHT31;62942;52.462;10.846;2023-02-15T01:11:12;-1.2;97.2
74484;SHT31;62942;52.462;10.846;2023-02-15T01:12:22;-1.2;97.2
74484;SHT31;62942;52.462;10.846;2023-02-15T01:13:32;-1.2;97.2
74484;SHT31;62942;52.462;10.846;2023-02-15T01:14:42;-1.2;97.2
74484;SHT31;62942;52.462;10.846;2023-02-15T01:15:52;-1.2;97.3
74484;SHT31;62942;52.462;10.846;2023-02-15T01:17:02;-1.2;97.2
74484;SHT31;62942;52.462;10.846;2023-02-15T01:18:02;-1.2;97.2
74484;SHT31;62942;52.462;10.846;2023-02-15T01:19:12;-1.3;97.3
74484;SHT31;62942;52.462;10.846;2023-02-15T01:20:12;-1.3;97.3
74484;SHT31;62942;52.462;10.846;2023-02-15T01:21:23;-1.3;97.3
74484;SHT31;62942;52.462;10.846;2023-02-15T01:22:22;-1.3;97.2
74484;SHT31;62942;52.462;10.846;2023-02-15T01:23:32;-1.3;97.2
74484;SHT31;62942;52.462;10.846;2023-02-15T01:24:32;-1.3;97.3
74484;SHT31;62942;52.462;10.846;2023-02-15T01:25:42;-1.3;97.2
74484;SHT31;62942;52.462;10.846;2023-02-15T01:26:42;-1.3;97.2
74484;SHT31;62942;52.462;10.846;2023-02-15T01:27:52;-1.3;97.2
74484;SHT31;62942;52.462;10.846;2023-02-15T01:29:02;-1.3;97.3
74484;SHT31;62942;52.462;10.846;2023-02-15T01:30:12;-1.3;97.3
74484;SHT31;62942;52.462;10.846;2023-02-15T01:31:21;-1.3;97.3
74484;SHT31;62942;52.462;10.846;2023-02-15T01:32:22;-1.3;97.2
74484;SHT31;62942;52.462;10.846;2023-02-15T01:33:32;-1.3;97.2
74484;SHT31;62942;52.462;10.846;2023-02-15T01:34:41;-1.4;97.2
74484;SHT31;62942;52.462;10.846;2023-02-15T01:35:55;-1.4;97.2
74484;SHT31;62942;52.462;10.846;2023-02-15T01:36:52;-1.4;97.2
74484;SHT31;62942;52.462;10.846;2023-02-15T01:37:52;-1.4;97.2
74484;SHT31;62942;52.462;10.846;2023-02-15T01:39:02;-1.4;97.2
74484;SHT31;62942;52.462;10.846;2023-02-15T01:40:12;-1.4;97.2
74484;SHT31;62942;52.462;10.846;2023-02-15T01:41:12;-1.3;97.2
74484;SHT31;62942;52.462;10.846;2023-02-15T01:42:22;-1.3;97.2
74484;SHT31;62942;52.462;10.846;2023-02-15T01:43:21;-1.3;97.2
74484;SHT31;62942;52.462;10.846;2023-02-15T01:44:55;-1.3;97.2
74484;SHT31;62942;52.462;10.846;2023-02-15T01:45:32;-1.3;97.2
74484;SHT31;62942;52.462;10.846;2023-02-15T01:46:33;-1.3;97.2
74484;SHT31;62942;52.462;10.846;2023-02-15T01:47:43;-1.3;97.2
74484;SHT31;62942;52.462;10.846;2023-02-15T01:48:43;-1.4;97.2
74484;SHT31;62942;52.462;10.846;2023-02-15T01:49:53;-1.4;97.2
74484;SHT31;62942;52.462;10.846;2023-02-15T01:51:01;-1.5;97.2
74484;SHT31;62942;52.462;10.846;2023-02-15T01:52:01;-1.5;97.2
74484;SHT31;62942;52.462;10.846;2023-02-15T01:53:13;-1.5;97.1
74484;SHT31;62942;52.462;10.846;2023-02-15T01:54:13;-1.6;97.1
74484;SHT31;62942;52.462;10.846;2023-02-15T01:55:22;-1.6;97.2
74484;SHT31;62942;52.462;10.846;2023-02-15T01:56:32;-1.7;97.2
74484;SHT31;62942;52.462;10.846;2023-02-15T01:57:42;-1.7;97.2
74484;SHT31;62942;52.462;10.846;2023-02-15T01:58:41;-1.7;97.2
74484;SHT31;62942;52.462;10.846;2023-02-15T01:59:52;-1.7;97.2
74484;SHT31;62942;52.462;10.846;2023-02-15T02:01:02;-1.8;97.2
74484;SHT31;62942;52.462;10.846;2023-02-15T02:02:12;-1.8;97.2
74484;SHT31;62942;52.462;10.846;2023-02-15T02:03:11;-1.8;97.2
74484;SHT31;62942;52.462;10.846;2023-02-15T02:04:23;-1.8;97.2
74484;SHT31;62942;52.462;10.846;2023-02-15T02:05:31;-1.8;97.2
74484;SHT31;62942;52.462;10.846;2023-02-15T02:06:32;-1.8;97.2
74484;SHT31;62942;52.462;10.846;2023-02-15T02:07:42;-1.9;97.2
74484;SHT31;62942;52.462;10.846;2023-02-15T02:08:52;-1.9;97.2
74484;SHT31;62942;52.462;10.846;2023-02-15T02:10:02;-1.9;97.2
74484;SHT31;62942;52.462;10.846;2023-02-15T02:11:12;-1.9;97.2
74484;SHT31;62942;52.462;10.846;2023-02-15T02:12:21;-1.9;97.2
74484;SHT31;62942;52.462;10.846;2023-02-15T02:13:31;-1.9;97.2
74484;SHT31;62942;52.462;10.846;2023-02-15T02:14:31;-1.9;97.2
74484;SHT31;62942;52.462;10.846;2023-02-15T02:15:33;-1.9;97.2
74484;SHT31;62942;52.462;10.846;2023-02-15T02:16:44;-1.9;97.3
74484;SHT31;62942;52.462;10.846;2023-02-15T02:17:54;-1.9;97.2
74484;SHT31;62942;52.462;10.846;2023-02-15T02:18:57;-1.9;97.3
74484;SHT31;62942;52.462;10.846;2023-02-15T02:20:22;-1.9;97.2
74484;SHT31;62942;52.462;10.846;2023-02-15T02:21:30;-1.9;97.2
74484;SHT31;62942;52.462;10.846;2023-02-15T02:22:27;-1.9;97.2
74484;SHT31;62942;52.462;10.846;2023-02-15T02:23:35;-1.9;97.2
74484;SHT31;62942;52.462;10.846;2023-02-15T02:24:40;-1.9;97.2
74484;SHT31;62942;52.462;10.846;2023-02-15T02:25:51;-1.9;97.2
74484;SHT31;62942;52.462;10.846;2023-02-15T02:26:48;-1.9;97.2
74484;SHT31;62942;52.462;10.846;2023-02-15T02:27:52;-1.9;97.2
74484;SHT31;62942;52.462;10.846;2023-02-15T02:29:03;-1.9;97.2
74484;SHT31;62942;52.462;10.846;2023-02-15T02:31:02;-1.9;97.2
74484;SHT31;62942;52.462;10.846;2023-02-15T02:31:07;-1.9;97.2
74484;SHT31;62942;52.462;10.846;2023-02-15T02:32:10;-1.9;97.2
74484;SHT31;62942;52.462;10.846;2023-02-15T02:33:15;-1.9;97.2
74484;SHT31;62942;52.462;10.846;2023-02-15T02:34:12;-1.9;97.2
74484;SHT31;62942;52.462;10.846;2023-02-15T02:35:22;-1.9;97.2
74484;SHT31;62942;52.462;10.846;2023-02-15T02:36:24;-1.9;97.2
74484;SHT31;62942;52.462;10.846;2023-02-15T02:37:33;-1.9;97.2
74484;SHT31;62942;52.462;10.846;2023-02-15T02:38:32;-1.9;97.2
74484;SHT31;62942;52.462;10.846;2023-02-15T02:39:42;-1.9;97.2
74484;SHT31;62942;52.462;10.846;2023-02-15T02:40:52;-1.9;97.2
74484;SHT31;62942;52.462;10.846;2023-02-15T02:41:55;-1.9;97.2
74484;SHT31;62942;52.462;10.846;2023-02-15T02:43:02;-1.9;97.2
74484;SHT31;62942;52.462;10.846;2023-02-15T02:44:04;-1.9;97.2
74484;SHT31;62942;52.462;10.846;2023-02-15T02:45:13;-1.9;97.2
74484;SHT31;62942;52.462;10.846;2023-02-15T02:46:13;-2;97.2
74484;SHT31;62942;52.462;10.846;2023-02-15T02:47:22;-2;97.3
74484;SHT31;62942;52.462;10.846;2023-02-15T02:48:22;-2;97.2
74484;SHT31;62942;52.462;10.846;2023-02-15T02:49:33;-2;97.3
74484;SHT31;62942;52.462;10.846;2023-02-15T02:50:41;-2;97.3
74484;SHT31;62942;52.462;10.846;2023-02-15T02:51:41;-2;97.3
74484;SHT31;62942;52.462;10.846;2023-02-15T02:52:52;-2;97.3
74484;SHT31;62942;52.462;10.846;2023-02-15T02:54:03;-2;97.4
74484;SHT31;62942;52.462;10.846;2023-02-15T02:55:01;-2;97.3
74484;SHT31;62942;52.462;10.846;2023-02-15T02:56:13;-2;97.3
74484;SHT31;62942;52.462;10.846;2023-02-15T02:57:11;-2;97.3
74484;SHT31;62942;52.462;10.846;2023-02-15T02:58:22;-2;97.4
74484;SHT31;62942;52.462;10.846;2023-02-15T02:59:32;-2;97.3
74484;SHT31;62942;52.462;10.846;2023-02-15T03:00:32;-2;97.3
74484;SHT31;62942;52.462;10.846;2023-02-15T03:01:42;-2;97.3
74484;SHT31;62942;52.462;10.846;2023-02-15T03:02:52;-1.9;97.4
74484;SHT31;62942;52.462;10.846;2023-02-15T03:03:52;-1.9;97.4
74484;SHT31;62942;52.462;10.846;2023-02-15T03:05:02;-1.9;97.4
74484;SHT31;62942;52.462;10.846;2023-02-15T03:06:03;-1.9;97.4
74484;SHT31;62942;52.462;10.846;2023-02-15T03:07:12;-1.9;97.4
74484;SHT31;62942;52.462;10.846;2023-02-15T03:08:11;-1.9;97.4
74484;SHT31;62942;52.462;10.846;2023-02-15T03:09:22;-1.9;97.4
74484;SHT31;62942;52.462;10.846;2023-02-15T03:10:22;-1.8;97.4
74484;SHT31;62942;52.462;10.846;2023-02-15T03:11:31;-1.8;97.4
74484;SHT31;62942;52.462;10.846;2023-02-15T03:12:32;-1.8;97.4
74484;SHT31;62942;52.462;10.846;2023-02-15T03:13:41;-1.8;97.4
74484;SHT31;62942;52.462;10.846;2023-02-15T03:14:41;-1.8;97.4
74484;SHT31;62942;52.462;10.846;2023-02-15T03:15:51;-1.8;97.4
74484;SHT31;62942;52.462;10.846;2023-02-15T03:16:51;-1.8;97.4
74484;SHT31;62942;52.462;10.846;2023-02-15T03:17:56;-1.8;97.5
74484;SHT31;62942;52.462;10.846;2023-02-15T03:19:03;-1.8;97.4
74484;SHT31;62942;52.462;10.846;2023-02-15T03:20:13;-1.8;97.5
74484;SHT31;62942;52.462;10.846;2023-02-15T03:21:11;-1.8;97.5
74484;SHT31;62942;52.462;10.846;2023-02-15T03:22:22;-1.8;97.5
74484;SHT31;62942;52.462;10.846;2023-02-15T03:23:31;-1.8;97.5
74484;SHT31;62942;52.462;10.846;2023-02-15T03:24:32;-1.8;97.5
74484;SHT31;62942;52.462;10.846;2023-02-15T03:25:32;-1.8;97.5
74484;SHT31;62942;52.462;10.846;2023-02-15T03:26:42;-1.8;97.5
74484;SHT31;62942;52.462;10.846;2023-02-15T03:27:52;-1.8;97.5
74484;SHT31;62942;52.462;10.846;2023-02-15T03:29:01;-1.8;97.6
74484;SHT31;62942;52.462;10.846;2023-02-15T03:30:02;-1.8;97.5
74484;SHT31;62942;52.462;10.846;2023-02-15T03:31:11;-1.8;97.5
74484;SHT31;62942;52.462;10.846;2023-02-15T03:32:11;-1.8;97.6
74484;SHT31;62942;52.462;10.846;2023-02-15T03:33:11;-1.8;97.5
74484;SHT31;62942;52.462;10.846;2023-02-15T03:34:21;-1.9;97.6
74484;SHT31;62942;52.462;10.846;2023-02-15T03:35:22;-1.9;97.6
74484;SHT31;62942;52.462;10.846;2023-02-15T03:36:32;-1.9;97.6
74484;SHT31;62942;52.462;10.846;2023-02-15T03:37:42;-1.9;97.6
74484;SHT31;62942;52.462;10.846;2023-02-15T03:38:42;-1.9;97.6
74484;SHT31;62942;52.462;10.846;2023-02-15T03:39:52;-1.9;97.6
74484;SHT31;62942;52.462;10.846;2023-02-15T03:40:51;-1.9;97.6
74484;SHT31;62942;52.462;10.846;2023-02-15T03:41:54;-1.9;97.6
74484;SHT31;62942;52.462;10.846;2023-02-15T03:43:03;-1.9;97.6
74484;SHT31;62942;52.462;10.846;2023-02-15T03:44:03;-1.9;97.6
74484;SHT31;62942;52.462;10.846;2023-02-15T03:45:02;-1.9;97.6
74484;SHT31;62942;52.462;10.846;2023-02-15T03:46:03;-1.9;97.6
74484;SHT31;62942;52.462;10.846;2023-02-15T03:47:12;-1.9;97.6
74484;SHT31;62942;52.462;10.846;2023-02-15T03:48:22;-1.9;97.6
74484;SHT31;62942;52.462;10.846;2023-02-15T03:49:37;-1.9;97.6
74484;SHT31;62942;52.462;10.846;2023-02-15T03:50:41;-1.9;97.6
74484;SHT31;62942;52.462;10.846;2023-02-15T03:51:42;-1.9;97.6
74484;SHT31;62942;52.462;10.846;2023-02-15T03:52:41;-1.9;97.6
74484;SHT31;62942;52.462;10.846;2023-02-15T03:53:51;-1.9;97.7
74484;SHT31;62942;52.462;10.846;2023-02-15T03:55:01;-1.9;97.6
74484;SHT31;62942;52.462;10.846;2023-02-15T03:56:01;-1.9;97.6
74484;SHT31;62942;52.462;10.846;2023-02-15T03:57:13;-1.9;97.7
74484;SHT31;62942;52.462;10.846;2023-02-15T03:58:11;-1.9;97.7
74484;SHT31;62942;52.462;10.846;2023-02-15T03:59:11;-1.9;97.6
74484;SHT31;62942;52.462;10.846;2023-02-15T04:00:22;-1.9;97.6
74484;SHT31;62942;52.462;10.846;2023-02-15T04:01:24;-1.9;97.7
74484;SHT31;62942;52.462;10.846;2023-02-15T04:02:33;-2;97.7
74484;SHT31;62942;52.462;10.846;2023-02-15T04:03:32;-2;97.7
74484;SHT31;62942;52.462;10.846;2023-02-15T04:04:42;-2;97.7
74484;SHT31;62942;52.462;10.846;2023-02-15T04:05:41;-2;97.7
74484;SHT31;62942;52.462;10.846;2023-02-15T04:06:41;-2;97.7
74484;SHT31;62942;52.462;10.846;2023-02-15T04:07:51;-2;97.7
74484;SHT31;62942;52.462;10.846;2023-02-15T04:09:01;-2;97.7
74484;SHT31;62942;52.462;10.846;2023-02-15T04:10:01;-2;97.6
74484;SHT31;62942;52.462;10.846;2023-02-15T04:11:11;-2;97.6
74484;SHT31;62942;52.462;10.846;2023-02-15T04:12:11;-2;97.6
74484;SHT31;62942;52.462;10.846;2023-02-15T04:13:22;-2;97.7
74484;SHT31;62942;52.462;10.846;2023-02-15T04:14:21;-2;97.7
74484;SHT31;62942;52.462;10.846;2023-02-15T04:15:21;-2.1;97.7
74484;SHT31;62942;52.462;10.846;2023-02-15T04:16:31;-2.1;97.6
74484;SHT31;62942;52.462;10.846;2023-02-15T04:17:31;-2.1;97.7
74484;SHT31;62942;52.462;10.846;2023-02-15T04:18:42;-2.1;97.7
74484;SHT31;62942;52.462;10.846;2023-02-15T04:19:41;-2.1;97.7
74484;SHT31;62942;52.462;10.846;2023-02-15T04:20:51;-2.1;97.7
74484;SHT31;62942;52.462;10.846;2023-02-15T04:22:01;-2.1;97.7
74484;SHT31;62942;52.462;10.846;2023-02-15T04:23:11;-2.1;97.7
74484;SHT31;62942;52.462;10.846;2023-02-15T04:24:11;-2.1;97.7
74484;SHT31;62942;52.462;10.846;2023-02-15T04:25:11;-2.1;97.7
74484;SHT31;62942;52.462;10.846;2023-02-15T04:26:11;-2.1;97.7
74484;SHT31;62942;52.462;10.846;2023-02-15T04:27:21;-2.1;97.7
74484;SHT31;62942;52.462;10.846;2023-02-15T04:28:21;-2.1;97.7
74484;SHT31;62942;52.462;10.846;2023-02-15T04:29:31;-2.2;97.7
74484;SHT31;62942;52.462;10.846;2023-02-15T04:30:41;-2.2;97.7
74484;SHT31;62942;52.462;10.846;2023-02-15T04:31:41;-2.1;97.7
74484;SHT31;62942;52.462;10.846;2023-02-15T04:32:41;-2.2;97.7
74484;SHT31;62942;52.462;10.846;2023-02-15T04:33:51;-2.2;97.7
74484;SHT31;62942;52.462;10.846;2023-02-15T04:35:01;-2.2;97.7
74484;SHT31;62942;52.462;10.846;2023-02-15T04:36:01;-2.2;97.7
74484;SHT31;62942;52.462;10.846;2023-02-15T04:37:01;-2.2;97.7
74484;SHT31;62942;52.462;10.846;2023-02-15T04:38:01;-2.2;97.7
74484;SHT31;62942;52.462;10.846;2023-02-15T04:39:12;-2.2;97.7
74484;SHT31;62942;52.462;10.846;2023-02-15T04:40:13;-2.2;97.7
74484;SHT31;62942;52.462;10.846;2023-02-15T04:41:21;-2.2;97.8
74484;SHT31;62942;52.462;10.846;2023-02-15T04:42:21;-2.2;97.7
74484;SHT31;62942;52.462;10.846;2023-02-15T04:43:31;-2.2;97.7
74484;SHT31;62942;52.462;10.846;2023-02-15T04:44:32;-2.2;97.7
74484;SHT31;62942;52.462;10.846;2023-02-15T04:45:31;-2.3;97.7
74484;SHT31;62942;52.462;10.846;2023-02-15T04:46:41;-2.2;97.7
74484;SHT31;62942;52.462;10.846;2023-02-15T04:47:41;-2.3;97.7
74484;SHT31;62942;52.462;10.846;2023-02-15T04:48:41;-2.2;97.7
74484;SHT31;62942;52.462;10.846;2023-02-15T04:49:51;-2.2;97.7
74484;SHT31;62942;52.462;10.846;2023-02-15T04:50:51;-2.2;97.7
74484;SHT31;62942;52.462;10.846;2023-02-15T04:52:01;-2.2;97.7
74484;SHT31;62942;52.462;10.846;2023-02-15T04:53:01;-2.2;97.7
74484;SHT31;62942;52.462;10.846;2023-02-15T04:54:01;-2.2;97.7
74484;SHT31;62942;52.462;10.846;2023-02-15T04:55:11;-2.2;97.8
74484;SHT31;62942;52.462;10.846;2023-02-15T04:56:11;-2.2;97.8
74484;SHT31;62942;52.462;10.846;2023-02-15T04:57:11;-2.2;97.7
74484;SHT31;62942;52.462;10.846;2023-02-15T04:58:21;-2.2;97.7
74484;SHT31;62942;52.462;10.846;2023-02-15T04:59:21;-2.2;97.7
74484;SHT31;62942;52.462;10.846;2023-02-15T05:00:31;-2.2;97.7
74484;SHT31;62942;52.462;10.846;2023-02-15T05:01:31;-2.2;97.7
74484;SHT31;62942;52.462;10.846;2023-02-15T05:02:41;-2.2;97.7
74484;SHT31;62942;52.462;10.846;2023-02-15T05:03:51;-2.2;97.7
74484;SHT31;62942;52.462;10.846;2023-02-15T05:04:51;-2.2;97.8
74484;SHT31;62942;52.462;10.846;2023-02-15T05:06:01;-2.2;97.7
74484;SHT31;62942;52.462;10.846;2023-02-15T05:07:01;-2.2;97.7
74484;SHT31;62942;52.462;10.846;2023-02-15T05:08:01;-2.2;97.7
74484;SHT31;62942;52.462;10.846;2023-02-15T05:09:11;-2.2;97.7
74484;SHT31;62942;52.462;10.846;2023-02-15T05:10:21;-2.3;97.7
74484;SHT31;62942;52.462;10.846;2023-02-15T05:11:21;-2.3;97.7
74484;SHT31;62942;52.462;10.846;2023-02-15T05:12:21;-2.3;97.7
74484;SHT31;62942;52.462;10.846;2023-02-15T05:13:31;-2.3;97.8
74484;SHT31;62942;52.462;10.846;2023-02-15T05:14:31;-2.3;97.7
74484;SHT31;62942;52.462;10.846;2023-02-15T05:15:41;-2.3;97.8
74484;SHT31;62942;52.462;10.846;2023-02-15T05:16:41;-2.3;97.8
74484;SHT31;62942;52.462;10.846;2023-02-15T05:17:41;-2.3;97.8
74484;SHT31;62942;52.462;10.846;2023-02-15T05:18:51;-2.3;97.8
74484;SHT31;62942;52.462;10.846;2023-02-15T05:19:51;-2.3;97.7
74484;SHT31;62942;52.462;10.846;2023-02-15T05:21:01;-2.3;97.7
74484;SHT31;62942;52.462;10.846;2023-02-15T05:22:01;-2.3;97.7
74484;SHT31;62942;52.462;10.846;2023-02-15T05:23:01;-2.3;97.7
74484;SHT31;62942;52.462;10.846;2023-02-15T05:24:11;-2.3;97.8
74484;SHT31;62942;52.462;10.846;2023-02-15T05:25:11;-2.3;97.7
74484;SHT31;62942;52.462;10.846;2023-02-15T05:26:22;-2.3;97.8
74484;SHT31;62942;52.462;10.846;2023-02-15T05:27:21;-2.3;97.8
74484;SHT31;62942;52.462;10.846;2023-02-15T05:28:31;-2.3;97.7
74484;SHT31;62942;52.462;10.846;2023-02-15T05:29:31;-2.3;97.8
74484;SHT31;62942;52.462;10.846;2023-02-15T05:30:41;-2.3;97.7
74484;SHT31;62942;52.462;10.846;2023-02-15T05:31:41;-2.3;97.7
74484;SHT31;62942;52.462;10.846;2023-02-15T05:32:51;-2.3;97.8
74484;SHT31;62942;52.462;10.846;2023-02-15T05:33:51;-2.3;97.7
74484;SHT31;62942;52.462;10.846;2023-02-15T05:35:01;-2.3;97.8
74484;SHT31;62942;52.462;10.846;2023-02-15T05:36:01;-2.3;97.8
74484;SHT31;62942;52.462;10.846;2023-02-15T05:37:11;-2.3;97.7
74484;SHT31;62942;52.462;10.846;2023-02-15T05:38:11;-2.3;97.8
74484;SHT31;62942;52.462;10.846;2023-02-15T05:39:11;-2.4;97.8
74484;SHT31;62942;52.462;10.846;2023-02-15T05:40:11;-2.4;97.8
74484;SHT31;62942;52.462;10.846;2023-02-15T05:41:21;-2.4;97.8
74484;SHT31;62942;52.462;10.846;2023-02-15T05:42:21;-2.4;97.8
74484;SHT31;62942;52.462;10.846;2023-02-15T05:43:21;-2.4;97.8
74484;SHT31;62942;52.462;10.846;2023-02-15T05:44:31;-2.4;97.7
74484;SHT31;62942;52.462;10.846;2023-02-15T05:45:44;-2.4;97.8
74484;SHT31;62942;52.462;10.846;2023-02-15T05:46:51;-2.4;97.8
74484;SHT31;62942;52.462;10.846;2023-02-15T05:47:51;-2.5;97.8
74484;SHT31;62942;52.462;10.846;2023-02-15T05:48:51;-2.5;97.8
74484;SHT31;62942;52.462;10.846;2023-02-15T05:50:01;-2.5;97.8
74484;SHT31;62942;52.462;10.846;2023-02-15T05:51:02;-2.5;97.8
74484;SHT31;62942;52.462;10.846;2023-02-15T05:52:11;-2.5;97.8
74484;SHT31;62942;52.462;10.846;2023-02-15T05:53:11;-2.5;97.8
74484;SHT31;62942;52.462;10.846;2023-02-15T05:54:21;-2.5;97.8
74484;SHT31;62942;52.462;10.846;2023-02-15T05:55:31;-2.5;97.8
74484;SHT31;62942;52.462;10.846;2023-02-15T05:56:31;-2.5;97.8
74484;SHT31;62942;52.462;10.846;2023-02-15T05:57:41;-2.5;97.8
74484;SHT31;62942;52.462;10.846;2023-02-15T05:58:52;-2.5;97.8
74484;SHT31;62942;52.462;10.846;2023-02-15T05:59:51;-2.6;97.8
74484;SHT31;62942;52.462;10.846;2023-02-15T06:00:51;-2.5;97.8
74484;SHT31;62942;52.462;10.846;2023-02-15T06:02:01;-2.6;97.8
74484;SHT31;62942;52.462;10.846;2023-02-15T06:03:11;-2.6;97.8
74484;SHT31;62942;52.462;10.846;2023-02-15T06:04:12;-2.5;97.8
74484;SHT31;62942;52.462;10.846;2023-02-15T06:05:22;-2.5;97.8
74484;SHT31;62942;52.462;10.846;2023-02-15T06:06:21;-2.6;97.8
74484;SHT31;62942;52.462;10.846;2023-02-15T06:07:31;-2.6;97.9
74484;SHT31;62942;52.462;10.846;2023-02-15T06:08:41;-2.6;97.8
74484;SHT31;62942;52.462;10.846;2023-02-15T06:09:41;-2.6;97.8
74484;SHT31;62942;52.462;10.846;2023-02-15T06:10:51;-2.6;97.8
74484;SHT31;62942;52.462;10.846;2023-02-15T06:12:01;-2.6;97.8
74484;SHT31;62942;52.462;10.846;2023-02-15T06:13:01;-2.6;97.8
74484;SHT31;62942;52.462;10.846;2023-02-15T06:14:11;-2.6;97.8
74484;SHT31;62942;52.462;10.846;2023-02-15T06:15:11;-2.7;97.8
74484;SHT31;62942;52.462;10.846;2023-02-15T06:16:21;-2.7;97.8
74484;SHT31;62942;52.462;10.846;2023-02-15T06:17:31;-2.7;97.8
74484;SHT31;62942;52.462;10.846;2023-02-15T06:18:31;-2.7;97.8
74484;SHT31;62942;52.462;10.846;2023-02-15T06:19:41;-2.7;97.8
74484;SHT31;62942;52.462;10.846;2023-02-15T06:20:41;-2.7;97.8
74484;SHT31;62942;52.462;10.846;2023-02-15T06:21:51;-2.8;97.8
74484;SHT31;62942;52.462;10.846;2023-02-15T06:22:51;-2.8;97.8
74484;SHT31;62942;52.462;10.846;2023-02-15T06:24:01;-2.8;97.8
74484;SHT31;62942;52.462;10.846;2023-02-15T06:25:11;-2.8;97.8
74484;SHT31;62942;52.462;10.846;2023-02-15T06:26:21;-2.8;97.8
74484;SHT31;62942;52.462;10.846;2023-02-15T06:27:31;-2.8;97.8
74484;SHT31;62942;52.462;10.846;2023-02-15T06:28:41;-2.8;97.8
74484;SHT31;62942;52.462;10.846;2023-02-15T06:29:41;-2.8;97.8
74484;SHT31;62942;52.462;10.846;2023-02-15T06:30:51;-2.9;97.8
74484;SHT31;62942;52.462;10.846;2023-02-15T06:31:51;-2.8;97.8
74484;SHT31;62942;52.462;10.846;2023-02-15T06:33:01;-2.9;97.8
74484;SHT31;62942;52.462;10.846;2023-02-15T06:34:01;-2.8;97.8
74484;SHT31;62942;52.462;10.846;2023-02-15T06:35:11;-2.9;97.8
74484;SHT31;62942;52.462;10.846;2023-02-15T06:36:21;-2.9;97.8
74484;SHT31;62942;52.462;10.846;2023-02-15T06:37:21;-2.9;97.8
74484;SHT31;62942;52.462;10.846;2023-02-15T06:38:31;-2.9;97.8
74484;SHT31;62942;52.462;10.846;2023-02-15T06:39:41;-2.9;97.8
74484;SHT31;62942;52.462;10.846;2023-02-15T06:40:41;-2.8;97.8
74484;SHT31;62942;52.462;10.846;2023-02-15T06:41:51;-2.9;97.8
74484;SHT31;62942;52.462;10.846;2023-02-15T06:42:51;-2.9;97.7
74484;SHT31;62942;52.462;10.846;2023-02-15T06:44:01;-2.9;97.8
74484;SHT31;62942;52.462;10.846;2023-02-15T06:45:01;-2.8;97.7
74484;SHT31;62942;52.462;10.846;2023-02-15T06:46:11;-2.9;97.7
74484;SHT31;62942;52.462;10.846;2023-02-15T06:47:11;-2.8;97.7
74484;SHT31;62942;52.462;10.846;2023-02-15T06:48:21;-2.8;97.7
74484;SHT31;62942;52.462;10.846;2023-02-15T06:49:31;-2.8;97.8
74484;SHT31;62942;52.462;10.846;2023-02-15T06:50:31;-2.8;97.7
74484;SHT31;62942;52.462;10.846;2023-02-15T06:51:41;-2.8;97.7
74484;SHT31;62942;52.462;10.846;2023-02-15T06:52:54;-2.8;97.7
74484;SHT31;62942;52.462;10.846;2023-02-15T06:53:51;-2.8;97.7
74484;SHT31;62942;52.462;10.846;2023-02-15T06:55:01;-2.8;97.7
74484;SHT31;62942;52.462;10.846;2023-02-15T06:56:01;-2.8;97.8
74484;SHT31;62942;52.462;10.846;2023-02-15T06:57:11;-2.8;97.7
74484;SHT31;62942;52.462;10.846;2023-02-15T06:58:11;-2.8;97.7
74484;SHT31;62942;52.462;10.846;2023-02-15T06:59:21;-2.8;97.7
74484;SHT31;62942;52.462;10.846;2023-02-15T07:00:21;-2.8;97.7
74484;SHT31;62942;52.462;10.846;2023-02-15T07:01:31;-2.8;97.7
74484;SHT31;62942;52.462;10.846;2023-02-15T07:02:41;-2.8;97.7
74484;SHT31;62942;52.462;10.846;2023-02-15T07:03:51;-2.8;97.7